Time;durP1;ratioP1;P1;durP2;ratioP2;P2;SDS_P1;SDS_P2;PMS_P1;PMS_P2;Temp;Humidity;BMP_temperature;BMP_pressure;BME280_temperature;BME280_humidity;BME280_pressure;Samples;Min_cycle;Max_cycle;Signal;HPM_P1;HPM_P2
2021/12/26 03:45:32;;;;;;;24.37;10.37;;;0.10;75.20;;;;;;5816727;24;20901;31
2021/12/26 03:47:58;;;;;;;32.85;12.15;;;0.10;76.40;;;;;;4772585;30;20287;-79
2021/12/26 03:50:27;;;;;;;26.42;11.00;;;0.10;76.10;;;;;;4771724;30;20039;-79
2021/12/26 03:52:57;;;;;;;25.67;10.52;;;0.10;75.50;;;;;;4789907;30;20066;-79
2021/12/26 03:55:26;;;;;;;36.65;10.43;;;0.10;75.20;;;;;;4780437;30;20037;-80
2021/12/26 03:57:53;;;;;;;26.60;10.55;;;0.10;75.10;;;;;;4767114;30;20091;-80
2021/12/26 04:00:21;;;;;;;28.30;10.93;;;0.10;75.60;;;;;;4759917;30;20040;-79
2021/12/26 04:02:48;;;;;;;26.70;10.65;;;0.10;75.90;;;;;;4772323;30;20047;-80
2021/12/26 04:05:14;;;;;;;28.38;11.07;;;0.20;76.50;;;;;;4760969;30;20082;-80
2021/12/26 04:07:42;;;;;;;25.52;9.98;;;0.10;76.50;;;;;;4754448;30;20055;-80
2021/12/26 04:10:09;;;;;;;26.85;10.73;;;0.20;77.50;;;;;;4745471;30;20036;-79
2021/12/26 04:12:37;;;;;;;;;;;0.20;77.30;;;;;;4760232;30;20027;-79
2021/12/26 04:15:10;;;;;;;25.05;11.38;;;0.20;78.10;;;;;;4789109;30;19925;-79
2021/12/26 04:17:36;;;;;;;27.60;10.73;;;0.30;78.10;;;;;;4782765;30;20058;-79
2021/12/26 04:20:05;;;;;;;28.38;10.82;;;0.30;78.40;;;;;;4763682;30;20033;-79
2021/12/26 04:22:31;;;;;;;28.35;11.65;;;0.20;77.70;;;;;;4737614;30;20040;-79
2021/12/26 04:24:58;;;;;;;26.30;10.95;;;0.10;76.10;;;;;;4759363;30;20040;-80
2021/12/26 04:27:24;;;;;;;31.67;10.77;;;0.00;75.80;;;;;;4759648;30;20106;-79
2021/12/26 04:29:53;;;;;;;37.17;10.15;;;-0.10;75.70;;;;;;4763522;30;20033;-79
2021/12/26 04:32:20;;;;;;;26.05;10.60;;;-0.10;76.90;;;;;;4763753;30;20054;-79
2021/12/26 04:34:47;;;;;;;25.63;10.60;;;-0.10;76.80;;;;;;4734072;30;20040;-79
2021/12/26 04:37:15;;;;;;;26.88;11.10;;;-0.10;78.20;;;;;;4748624;30;20043;-79
2021/12/26 04:39:41;;;;;;;27.05;11.27;;;-0.20;76.20;;;;;;4757908;30;20032;-79
2021/12/26 04:42:07;;;;;;;26.90;10.27;;;-0.20;77.60;;;;;;4757300;30;20028;-79
2021/12/26 04:44:56;;;;;;;28.33;11.15;;;-0.30;77.80;;;;;;4742420;30;20115;-79
2021/12/26 04:47:43;;;;;;;22.85;9.68;;;-0.30;78.00;;;;;;4732696;30;20072;-79
2021/12/26 04:50:12;;;;;;;22.55;9.57;;;-0.30;78.80;;;;;;4730154;30;20344;-79
2021/12/26 04:52:45;;;;;;;22.40;9.90;;;-0.30;78.30;;;;;;4731145;30;20024;-79
2021/12/26 04:55:20;;;;;;;32.33;11.77;;;-0.30;79.20;;;;;;4730945;30;20069;-79
2021/12/26 04:57:46;;;;;;;27.75;10.75;;;-0.30;79.10;;;;;;4729978;30;20035;-79
2021/12/26 05:00:15;;;;;;;26.10;11.98;;;-0.30;76.40;;;;;;4730220;30;20120;-79
2021/12/26 05:02:42;;;;;;;29.27;11.32;;;-0.40;78.40;;;;;;4729786;30;20104;-79
2021/12/26 05:05:09;;;;;;;34.65;13.18;;;-0.30;78.30;;;;;;4744779;30;20052;-79
2021/12/26 05:07:36;;;;;;;34.55;12.75;;;-0.30;79.10;;;;;;4742550;30;20041;-79
2021/12/26 05:10:03;;;;;;;29.55;11.43;;;-0.30;78.80;;;;;;4744401;30;20340;-79
2021/12/26 05:12:29;;;;;;;25.73;11.52;;;-0.30;77.70;;;;;;4747047;30;20075;-79
2021/12/26 05:14:55;;;;;;;34.25;12.25;;;-0.30;77.80;;;;;;4737584;30;20041;-79
2021/12/26 05:17:21;;;;;;;30.95;12.43;;;-0.30;79.30;;;;;;4729779;30;20152;-79
2021/12/26 05:19:48;;;;;;;37.00;12.05;;;-0.30;78.20;;;;;;4744353;30;20180;-79
2021/12/26 05:22:14;;;;;;;25.98;11.88;;;-0.30;79.60;;;;;;4753226;30;20047;-79
2021/12/26 05:24:40;;;;;;;34.65;12.23;;;-0.30;77.50;;;;;;4744132;30;20048;-79
2021/12/26 05:27:06;;;;;;;29.77;11.95;;;-0.30;77.80;;;;;;4728874;30;20121;-80
2021/12/26 05:29:33;;;;;;;33.15;12.45;;;-0.30;78.80;;;;;;4741869;30;20040;-80
2021/12/26 05:31:59;;;;;;;34.57;12.47;;;-0.40;77.60;;;;;;4727641;30;20098;-80
2021/12/26 05:34:25;;;;;;;36.05;13.18;;;-0.40;78.10;;;;;;4738141;30;20053;-80
2021/12/26 05:36:51;;;;;;;26.53;11.93;;;-0.40;77.30;;;;;;4730494;30;20059;-80
2021/12/26 05:39:17;;;;;;;23.23;11.00;;;-0.40;78.00;;;;;;4733262;30;20061;-80
2021/12/26 05:41:42;;;;;;;32.90;11.90;;;-0.60;76.90;;;;;;4727364;30;20060;-79
2021/12/26 05:44:28;;;;;;;31.73;12.18;;;-0.60;77.40;;;;;;4741614;30;20048;-80
2021/12/26 05:46:57;;;;;;;28.45;11.80;;;-0.70;76.80;;;;;;4743777;30;20067;-80
2021/12/26 05:49:27;;;;;;;28.13;11.68;;;-0.70;76.40;;;;;;4744287;30;20033;-80
2021/12/26 05:52:06;;;;;;;33.15;12.18;;;-0.80;75.00;;;;;;4743277;30;20057;-80
2021/12/26 05:54:42;;;;;;;32.22;12.98;;;-0.80;76.00;;;;;;4734473;30;20037;-80
2021/12/26 05:57:08;;;;;;;28.37;11.83;;;-0.90;77.40;;;;;;4729927;30;20337;-80
2021/12/26 05:59:34;;;;;;;34.17;12.43;;;-0.90;76.30;;;;;;4729920;30;20047;-79
2021/12/26 06:02:00;;;;;;;35.30;13.55;;;-0.90;77.90;;;;;;4758942;30;20103;-79
2021/12/26 06:04:27;;;;;;;40.03;16.23;;;-0.80;77.10;;;;;;4743384;30;20049;-79
2021/12/26 06:06:53;;;;;;;34.35;17.38;;;-0.80;78.80;;;;;;4734025;30;20137;-80
2021/12/26 06:09:19;;;;;;;35.72;14.57;;;-0.80;79.80;;;;;;4743984;30;20112;-80
2021/12/26 06:11:47;;;;;;;29.85;12.90;;;-0.70;79.90;;;;;;4729856;30;20043;-79
2021/12/26 06:14:13;;;;;;;43.00;15.00;;;-0.80;78.90;;;;;;4744003;30;20082;-80
2021/12/26 06:16:40;;;;;;;33.92;12.82;;;-0.80;79.90;;;;;;4736508;30;20308;-80
2021/12/26 06:19:14;;;;;;;30.38;13.10;;;-0.80;78.70;;;;;;4731027;30;20048;-80
2021/12/26 06:21:59;;;;;;;34.25;13.07;;;-0.80;79.30;;;;;;4728001;30;20040;-80
2021/12/26 06:24:55;;;;;;;34.22;12.77;;;-0.90;80.00;;;;;;4743329;30;20061;-80
2021/12/26 06:27:27;;;;;;;32.75;13.90;;;-0.90;79.80;;;;;;4735541;30;20100;-80
2021/12/26 06:30:12;;;;;;;31.33;12.63;;;-0.90;79.20;;;;;;4744108;30;20047;-80
2021/12/26 06:32:56;;;;;;;34.10;14.25;;;-1.00;78.90;;;;;;4735468;30;20151;-79
2021/12/26 06:35:52;;;;;;;29.38;12.80;;;-0.90;79.90;;;;;;4747353;30;20040;-79
2021/12/26 06:38:38;;;;;;;39.45;13.60;;;-1.00;80.10;;;;;;4752887;30;20051;-80
2021/12/26 06:41:33;;;;;;;43.20;14.70;;;-1.00;78.50;;;;;;4754895;30;20244;-81
2021/12/26 06:44:07;;;;;;;39.08;14.20;;;-1.10;79.80;;;;;;4739952;30;20048;-79
2021/12/26 06:46:48;;;;;;;39.35;15.10;;;-1.10;78.90;;;;;;4727956;30;20103;-80
2021/12/26 06:49:34;;;;;;;35.75;14.20;;;-1.10;79.20;;;;;;4722397;30;20041;-79
2021/12/26 06:52:01;;;;;;;49.55;16.33;;;-1.10;78.20;;;;;;4695780;30;20404;-80
2021/12/26 06:54:27;;;;;;;42.47;15.23;;;-1.20;78.80;;;;;;4699273;30;20048;-79
2021/12/26 06:56:53;;;;;;;41.03;15.33;;;-1.20;79.20;;;;;;4681097;30;20084;-79
2021/12/26 06:59:18;;;;;;;40.65;15.20;;;-1.20;79.30;;;;;;4699495;30;20057;-80
2021/12/26 07:01:44;;;;;;;44.95;16.80;;;-1.20;80.30;;;;;;4696821;30;20064;-80
2021/12/26 07:04:14;;;;;;;40.22;16.45;;;-1.20;79.20;;;;;;4702712;30;20060;-79
2021/12/26 07:06:40;;;;;;;42.58;16.98;;;-1.10;79.70;;;;;;4697475;30;20373;-79
2021/12/26 07:09:13;;;;;;;50.70;18.08;;;-1.10;77.50;;;;;;4704282;30;20032;-80
2021/12/26 07:11:39;;;;;;;50.23;18.60;;;-1.10;76.90;;;;;;4719566;30;20041;-79
2021/12/26 07:14:13;;;;;;;42.63;16.52;;;-1.10;78.00;;;;;;4724250;30;20041;-80
2021/12/26 07:16:39;;;;;;;50.03;17.85;;;-1.00;77.20;;;;;;4725259;30;20087;-81
2021/12/26 07:19:05;;;;;;;37.42;16.27;;;-1.00;77.80;;;;;;4721923;30;20036;-80
2021/12/26 07:21:37;;;;;;;42.65;18.27;;;-0.90;78.80;;;;;;4709191;30;20037;-80
2021/12/26 07:24:08;;;;;;;45.28;16.35;;;-0.80;78.20;;;;;;4708562;30;20088;-80
2021/12/26 07:26:34;;;;;;;58.15;17.55;;;-0.80;76.80;;;;;;4735646;30;20320;-80
2021/12/26 07:29:01;;;;;;;43.35;17.58;;;-0.80;78.30;;;;;;4727675;30;20059;-80
2021/12/26 07:31:33;;;;;;;46.88;15.80;;;-0.70;77.60;;;;;;4742275;30;20041;-80
2021/12/26 07:34:03;;;;;;;42.42;17.92;;;-0.70;77.30;;;;;;4727902;30;20044;-80
2021/12/26 07:36:30;;;;;;;40.88;16.83;;;-0.60;77.80;;;;;;4741991;30;20041;-80
2021/12/26 07:39:11;;;;;;;44.17;17.02;;;-0.50;75.90;;;;;;4717724;30;20300;-80
2021/12/26 07:41:37;;;;;;;50.33;17.25;;;-0.50;76.20;;;;;;4715998;30;20028;-80
2021/12/26 07:44:05;;;;;;;39.20;15.63;;;-0.50;75.60;;;;;;4739672;30;20036;-81
2021/12/26 07:47:07;;;;;;;42.15;16.48;;;-0.50;75.10;;;;;;4670198;30;20257;-81
2021/12/26 07:49:33;;;;;;;37.65;15.45;;;-0.50;74.90;;;;;;4686222;30;20081;-81
2021/12/26 07:52:29;;;;;;;39.55;16.90;;;-0.60;75.50;;;;;;4671892;30;20077;-81
2021/12/26 07:55:13;;;;;;;41.97;16.80;;;-0.50;74.90;;;;;;4671956;30;20081;-81
2021/12/26 07:57:58;;;;;;;40.72;16.67;;;-0.50;75.80;;;;;;4659061;30;20074;-81
2021/12/26 08:00:43;;;;;;;40.95;17.25;;;-0.50;74.80;;;;;;4671310;30;20121;-81
2021/12/26 08:03:34;;;;;;;49.58;18.00;;;-0.60;74.00;;;;;;4673227;30;20115;-81
2021/12/26 08:06:20;;;;;;;57.78;19.65;;;-0.60;73.30;;;;;;4675167;30;20230;-81
2021/12/26 08:08:51;;;;;;;46.97;18.35;;;-0.70;75.20;;;;;;4657397;30;20041;-81
2021/12/26 08:11:17;;;;;;;55.05;20.67;;;-0.50;77.00;;;;;;4674944;30;20304;-81
2021/12/26 08:13:44;;;;;;;55.10;20.08;;;-0.40;77.50;;;;;;4676865;30;20331;-81
2021/12/26 08:16:10;;;;;;;55.08;21.55;;;-0.30;76.00;;;;;;4678114;30;20085;-81
2021/12/26 08:18:35;;;;;;;75.75;24.42;;;-0.20;77.30;;;;;;4675685;30;20323;-81
2021/12/26 08:21:01;;;;;;;49.30;19.90;;;-0.10;76.60;;;;;;4699422;30;20709;-81
2021/12/26 08:23:27;;;;;;;45.88;19.60;;;0.00;76.70;;;;;;4728308;30;20345;-78
2021/12/26 08:25:54;;;;;;;51.22;21.23;;;0.10;76.90;;;;;;4726766;30;20041;-79
2021/12/26 08:28:20;;;;;;;54.50;20.45;;;0.10;77.20;;;;;;4728907;30;20049;-79
2021/12/26 08:30:46;;;;;;;47.38;19.50;;;0.20;75.60;;;;;;4741100;30;20074;-80
2021/12/26 08:33:13;;;;;;;49.97;19.05;;;0.10;75.20;;;;;;4743884;30;20049;-79
2021/12/26 08:35:42;;;;;;;44.25;18.88;;;0.10;75.20;;;;;;4741998;30;20037;-79
2021/12/26 08:38:08;;;;;;;56.30;19.52;;;0.00;75.00;;;;;;4744476;30;20044;-79
2021/12/26 08:40:34;;;;;;;59.97;22.00;;;0.00;75.50;;;;;;4744429;30;20048;-79
2021/12/26 08:43:00;;;;;;;58.72;21.05;;;0.00;76.60;;;;;;4758346;30;20344;-79
2021/12/26 08:45:26;;;;;;;53.08;20.15;;;0.10;76.80;;;;;;4756855;30;20111;-79
2021/12/26 08:47:55;;;;;;;57.78;21.80;;;0.20;77.10;;;;;;4744875;30;20063;-80
2021/12/26 08:50:22;;;;;;;49.13;19.48;;;0.50;78.00;;;;;;4739979;30;20029;-81
2021/12/26 08:52:49;;;;;;;52.20;21.00;;;0.50;75.10;;;;;;4729576;30;20071;-80
2021/12/26 08:55:15;;;;;;;54.40;22.02;;;0.60;76.60;;;;;;4758774;30;20051;-81
2021/12/26 08:57:41;;;;;;;52.85;19.92;;;0.60;76.90;;;;;;4744723;30;20028;-80
2021/12/26 09:00:10;;;;;;;56.80;20.23;;;0.70;75.90;;;;;;4759386;30;20064;-80
2021/12/26 09:02:36;;;;;;;57.50;21.75;;;0.50;74.50;;;;;;4743079;30;20033;-80
2021/12/26 09:05:03;;;;;;;54.45;21.98;;;0.40;75.50;;;;;;4720656;30;20115;-80
2021/12/26 09:07:29;;;;;;;48.53;19.83;;;0.40;77.00;;;;;;4744529;30;20051;-81
2021/12/26 09:09:56;;;;;;;50.30;20.63;;;0.50;78.20;;;;;;4715255;30;20052;-80
2021/12/26 09:12:22;;;;;;;58.38;22.25;;;0.60;76.90;;;;;;4730811;30;20322;-80
2021/12/26 09:14:48;;;;;;;58.33;23.08;;;0.60;76.80;;;;;;4730622;30;20044;-80
2021/12/26 09:17:14;;;;;;;56.15;22.33;;;0.70;77.70;;;;;;4730193;30;20045;-80
2021/12/26 09:19:39;;;;;;;59.92;21.05;;;0.80;77.00;;;;;;4758736;30;20063;-80
2021/12/26 09:22:08;;;;;;;60.00;23.52;;;0.70;76.90;;;;;;4740968;30;20056;-80
2021/12/26 09:24:36;;;;;;;56.17;21.38;;;0.80;76.60;;;;;;4742965;30;20120;-79
2021/12/26 09:27:02;;;;;;;53.28;22.80;;;0.80;76.30;;;;;;4743834;30;20133;-80
2021/12/26 09:29:28;;;;;;;61.95;23.02;;;0.80;77.00;;;;;;4743797;30;20091;-80
2021/12/26 09:31:56;;;;;;;56.85;21.55;;;0.80;77.00;;;;;;4729002;30;20052;-80
2021/12/26 09:34:23;;;;;;;54.47;23.33;;;0.80;77.40;;;;;;4736606;30;20209;-80
2021/12/26 09:36:49;;;;;;;50.72;20.88;;;0.80;77.40;;;;;;4741574;30;20048;-80
2021/12/26 09:39:17;;;;;;;54.77;21.73;;;0.70;76.60;;;;;;4734141;30;20064;-80
2021/12/26 09:41:43;;;;;;;64.25;24.45;;;0.60;78.20;;;;;;4743649;30;20072;-80
2021/12/26 09:44:09;;;;;;;57.27;22.67;;;0.70;77.90;;;;;;4719720;30;20047;-81
2021/12/26 09:46:36;;;;;;;61.30;23.20;;;0.70;78.40;;;;;;4713493;30;20056;-80
2021/12/26 09:49:03;;;;;;;53.55;23.38;;;0.70;79.20;;;;;;4743578;30;20036;-80
2021/12/26 09:51:29;;;;;;;68.63;25.08;;;0.80;79.00;;;;;;4738867;30;20033;-80
2021/12/26 09:53:54;;;;;;;56.28;24.45;;;0.70;79.20;;;;;;4728160;30;20044;-80
2021/12/26 09:56:20;;;;;;;57.13;24.33;;;0.70;80.50;;;;;;4738032;30;20037;-80
2021/12/26 09:59:00;;;;;;;55.00;22.85;;;0.80;79.90;;;;;;4729677;30;20039;-80
2021/12/26 10:01:50;;;;;;;57.30;24.95;;;0.80;80.50;;;;;;4752153;30;20041;-80
2021/12/26 10:04:26;;;;;;;62.88;24.40;;;0.90;79.10;;;;;;4742426;30;20044;-81
2021/12/26 10:07:00;;;;;;;61.83;25.45;;;0.80;79.70;;;;;;4743072;30;20099;-80
2021/12/26 10:09:27;;;;;;;60.53;25.45;;;0.80;81.10;;;;;;4757872;30;20033;-81
2021/12/26 10:11:56;;;;;;;60.08;24.25;;;0.90;79.70;;;;;;4729990;30;20041;-80
2021/12/26 10:14:31;;;;;;;65.95;26.02;;;0.80;80.00;;;;;;4743620;30;20028;-80
2021/12/26 10:17:27;;;;;;;63.70;26.77;;;0.80;80.50;;;;;;4728019;30;20043;-80
2021/12/26 10:20:09;;;;;;;66.10;26.20;;;0.70;80.60;;;;;;4747179;30;20075;-80
2021/12/26 10:22:35;;;;;;;58.95;25.30;;;0.70;81.30;;;;;;4736759;30;20259;-80
2021/12/26 10:25:10;;;;;;;61.63;23.92;;;0.70;81.20;;;;;;4720643;30;20060;-80
2021/12/26 10:27:37;;;;;;;72.03;27.30;;;0.70;81.80;;;;;;4738925;30;20052;-80
2021/12/26 10:30:05;;;;;;;70.80;26.70;;;0.90;83.00;;;;;;4742303;30;20089;-81
2021/12/26 10:32:37;;;;;;;67.65;26.90;;;0.90;81.40;;;;;;4730844;30;20378;-80
2021/12/26 10:35:11;;;;;;;68.30;27.85;;;1.00;81.90;;;;;;4742469;30;20275;-80
2021/12/26 10:37:47;;;;;;;69.97;29.13;;;1.10;83.00;;;;;;4728718;30;20048;-80
2021/12/26 10:40:16;;;;;;;74.88;31.13;;;1.20;81.80;;;;;;4718977;30;20260;-81
2021/12/26 10:42:48;;;;;;;69.05;31.15;;;1.20;82.30;;;;;;4725171;30;20037;-80
2021/12/26 10:45:20;;;;;;;66.93;30.80;;;1.20;82.90;;;;;;4729241;30;20117;-80
2021/12/26 10:48:00;;;;;;;87.05;33.78;;;1.20;84.30;;;;;;4737386;30;20127;-80
2021/12/26 10:50:29;;;;;;;81.15;31.27;;;1.10;84.50;;;;;;4723834;30;20340;-80
2021/12/26 10:52:58;;;;;;;77.90;31.77;;;1.00;85.70;;;;;;4741689;30;20202;-80
2021/12/26 10:55:42;;;;;;;82.78;35.15;;;1.10;86.70;;;;;;4742826;30;20360;-80
2021/12/26 10:58:14;;;;;;;90.22;35.08;;;1.10;87.20;;;;;;4737739;30;20205;-80
2021/12/26 11:00:46;;;;;;;94.18;36.78;;;1.00;87.70;;;;;;4742468;30;20344;-80
2021/12/26 11:03:20;;;;;;;100.22;36.90;;;1.00;88.80;;;;;;4741918;30;20043;-80
2021/12/26 11:05:48;;;;;;;94.93;39.15;;;1.00;89.70;;;;;;4741633;30;20054;-79
2021/12/26 11:08:29;;;;;;;96.65;37.72;;;0.90;90.40;;;;;;4742072;30;20033;-80
2021/12/26 11:10:58;;;;;;;111.65;42.80;;;0.80;90.70;;;;;;4743202;30;20332;-80
2021/12/26 11:13:25;;;;;;;99.40;40.15;;;0.90;91.10;;;;;;4738249;30;20049;-80
2021/12/26 11:15:56;;;;;;;109.07;41.92;;;0.90;91.20;;;;;;4742126;30;20115;-79
2021/12/26 11:18:23;;;;;;;114.22;42.17;;;0.90;91.30;;;;;;4742291;30;20060;-80
2021/12/26 11:20:58;;;;;;;113.68;44.35;;;0.90;91.60;;;;;;4736291;30;20091;-80
2021/12/26 11:23:31;;;;;;;131.70;47.40;;;0.80;91.80;;;;;;4739842;30;20040;-79
2021/12/26 11:26:00;;;;;;;123.00;47.17;;;0.80;92.30;;;;;;4732096;30;20393;-80
2021/12/26 11:28:28;;;;;;;136.43;48.35;;;0.70;92.90;;;;;;4724391;30;20036;-79
2021/12/26 11:31:01;;;;;;;122.28;45.58;;;0.60;93.60;;;;;;4757252;30;20376;-80
2021/12/26 11:33:27;;;;;;;125.43;49.08;;;0.50;94.20;;;;;;4756682;30;20059;-80
2021/12/26 11:35:54;;;;;;;145.60;49.93;;;0.40;94.60;;;;;;4756635;30;20040;-79
2021/12/26 11:38:22;;;;;;;131.75;49.40;;;0.30;95.30;;;;;;4730948;30;20037;-79
2021/12/26 11:41:16;;;;;;;135.15;50.70;;;0.40;95.10;;;;;;4741543;30;20099;-79
2021/12/26 11:44:20;;;;;;;129.88;48.80;;;0.50;95.10;;;;;;4740592;30;20078;-79
2021/12/26 11:47:27;;;;;;;139.40;52.30;;;0.60;95.30;;;;;;4754447;30;20118;-80
2021/12/26 11:50:41;;;;;;;128.10;45.85;;;0.50;95.40;;;;;;4742580;30;20433;-80
2021/12/26 11:53:58;;;;;;;135.80;47.92;;;0.40;95.50;;;;;;4727252;30;20158;-79
2021/12/26 11:56:58;;;;;;;136.25;47.50;;;0.30;96.00;;;;;;4711439;30;20043;-79
2021/12/26 11:59:36;;;;;;;128.75;46.22;;;0.30;96.00;;;;;;4710676;30;20120;-80
2021/12/26 12:02:02;;;;;;;115.72;45.42;;;0.40;95.80;;;;;;4722819;30;20052;-79
2021/12/26 12:04:28;;;;;;;117.10;46.58;;;0.50;95.80;;;;;;4726750;30;20112;-79
2021/12/26 12:06:56;;;;;;;130.85;46.53;;;0.50;95.60;;;;;;4687222;30;20244;-80
2021/12/26 12:09:40;;;;;;;128.02;47.00;;;0.60;95.50;;;;;;4689676;30;20225;-81
2021/12/26 12:12:13;;;;;;;126.00;47.65;;;0.60;95.40;;;;;;4728712;30;20052;-80
2021/12/26 12:14:53;;;;;;;121.22;46.72;;;0.60;95.10;;;;;;4728298;30;20108;-80
2021/12/26 12:17:29;;;;;;;122.18;46.63;;;0.60;95.10;;;;;;4712067;30;20256;-81
2021/12/26 12:20:20;;;;;;;120.18;46.50;;;0.70;95.10;;;;;;4712663;30;20044;-80
2021/12/26 12:23:04;;;;;;;111.50;45.30;;;0.80;95.20;;;;;;4727740;30;20040;-80
2021/12/26 12:25:36;;;;;;;118.65;47.45;;;0.80;95.10;;;;;;4711846;30;20025;-80
2021/12/26 12:28:16;;;;;;;189.07;74.72;;;0.80;94.90;;;;;;4724839;30;20045;-80
2021/12/26 12:30:54;;;;;;;136.50;49.33;;;0.80;95.30;;;;;;4731177;30;20622;-79
2021/12/26 12:33:32;;;;;;;119.07;46.95;;;0.80;95.40;;;;;;4759767;30;20060;-80
2021/12/26 12:36:00;;;;;;;133.82;48.42;;;0.80;95.30;;;;;;4756466;30;20039;-80
2021/12/26 12:38:34;;;;;;;124.40;47.72;;;0.80;95.30;;;;;;4731902;30;20063;-80
2021/12/26 12:41:02;;;;;;;131.30;47.85;;;0.70;95.30;;;;;;4759838;30;20032;-81
2021/12/26 12:43:30;;;;;;;133.82;48.83;;;0.80;95.50;;;;;;4731751;30;20049;-80
2021/12/26 12:46:00;;;;;;;128.68;48.72;;;0.90;95.10;;;;;;4744442;30;20185;-80
2021/12/26 12:48:46;;;;;;;124.63;47.90;;;0.90;95.30;;;;;;4745717;30;20096;-80
2021/12/26 12:51:15;;;;;;;126.65;48.30;;;0.80;95.10;;;;;;4756985;30;20304;-80
2021/12/26 12:53:42;;;;;;;125.72;46.95;;;0.80;95.20;;;;;;4744752;30;20133;-80
2021/12/26 12:56:10;;;;;;;130.95;49.78;;;0.90;95.30;;;;;;4745605;30;20029;-81
2021/12/26 12:58:36;;;;;;;124.97;48.75;;;0.90;95.10;;;;;;4758769;30;20055;-80
2021/12/26 13:01:06;;;;;;;131.50;50.45;;;0.90;95.40;;;;;;4723889;30;20040;-80
2021/12/26 13:03:36;;;;;;;139.75;48.60;;;0.90;95.40;;;;;;4744445;30;20059;-80
2021/12/26 13:06:08;;;;;;;132.32;47.88;;;0.90;95.20;;;;;;4715621;30;20064;-80
2021/12/26 13:08:34;;;;;;;134.55;48.20;;;0.90;95.40;;;;;;4744373;30;20105;-80
2021/12/26 13:11:02;;;;;;;129.02;46.80;;;0.90;95.60;;;;;;4742071;30;20395;-81
2021/12/26 13:13:30;;;;;;;121.10;44.92;;;1.00;95.40;;;;;;4742221;30;20036;-80
2021/12/26 13:16:03;;;;;;;127.78;48.13;;;0.90;95.40;;;;;;4743109;30;20039;-79
2021/12/26 13:18:32;;;;;;;143.23;51.92;;;0.90;95.40;;;;;;4741998;30;20048;-80
2021/12/26 13:21:02;;;;;;;128.73;51.22;;;1.00;95.40;;;;;;4743826;30;20271;-81
2021/12/26 13:23:30;;;;;;;132.25;50.85;;;1.00;95.70;;;;;;4744179;30;20044;-80
2021/12/26 13:25:59;;;;;;;136.90;49.95;;;1.00;95.90;;;;;;4743440;30;20055;-81
2021/12/26 13:28:30;;;;;;;134.57;49.70;;;0.90;96.20;;;;;;4743838;30;20033;-81
2021/12/26 13:30:59;;;;;;;141.40;51.33;;;0.80;96.20;;;;;;4744017;30;20332;-81
2021/12/26 13:33:31;;;;;;;142.30;51.47;;;0.80;96.40;;;;;;4741463;30;20110;-81
2021/12/26 13:35:57;;;;;;;135.18;51.15;;;0.90;96.50;;;;;;4758486;30;20067;-80
2021/12/26 13:38:24;;;;;;;140.77;53.03;;;0.90;96.50;;;;;;4741469;30;20068;-80
2021/12/26 13:40:55;;;;;;;143.87;53.53;;;1.00;96.60;;;;;;4743853;30;20044;-81
2021/12/26 13:43:30;;;;;;;142.15;51.55;;;1.00;96.90;;;;;;4743861;30;20037;-81
2021/12/26 13:45:58;;;;;;;123.78;49.28;;;1.00;96.40;;;;;;4758136;30;20056;-80
2021/12/26 13:48:37;;;;;;;141.65;51.20;;;1.00;96.30;;;;;;4744020;30;20049;-81
2021/12/26 13:51:38;;;;;;;135.40;51.50;;;1.00;96.30;;;;;;4729656;30;20033;-81
2021/12/26 13:54:16;;;;;;;126.97;47.85;;;1.10;96.50;;;;;;4739688;30;20321;-80
2021/12/26 13:56:56;;;;;;;131.30;48.75;;;1.00;96.40;;;;;;4725746;30;20044;-81
2021/12/26 13:59:38;;;;;;;137.85;51.85;;;1.10;96.60;;;;;;4724250;30;20037;-80
2021/12/26 14:02:17;;;;;;;128.90;48.15;;;1.10;96.70;;;;;;4711394;30;20391;-81
2021/12/26 14:04:49;;;;;;;128.55;47.80;;;1.20;96.70;;;;;;4725082;30;20111;-81
2021/12/26 14:07:25;;;;;;;119.85;45.67;;;1.20;96.60;;;;;;4725295;30;20037;-81
2021/12/26 14:09:55;;;;;;;117.57;43.25;;;1.10;96.40;;;;;;4724591;30;20037;-81
2021/12/26 14:12:49;;;;;;;117.88;47.45;;;1.10;96.50;;;;;;4725156;30;20048;-81
2021/12/26 14:15:34;;;;;;;111.35;46.55;;;1.10;96.50;;;;;;4662541;30;20065;-81
2021/12/26 14:18:17;;;;;;;122.22;46.05;;;1.20;96.40;;;;;;4673211;30;20114;-81
2021/12/26 14:20:59;;;;;;;121.03;46.78;;;1.10;96.20;;;;;;4672900;30;20116;-81
2021/12/26 14:23:28;;;;;;;123.72;47.10;;;1.10;96.30;;;;;;4673103;30;20050;-81
2021/12/26 14:26:04;;;;;;;112.30;44.80;;;1.00;96.50;;;;;;4672333;30;20313;-81
2021/12/26 14:28:31;;;;;;;116.78;46.22;;;0.90;96.60;;;;;;4674264;30;20117;-81
2021/12/26 14:30:59;;;;;;;126.10;45.20;;;1.00;97.00;;;;;;4690291;30;20033;-80
2021/12/26 14:33:33;;;;;;;110.82;45.38;;;1.00;97.00;;;;;;4666024;30;20041;-82
2021/12/26 14:36:02;;;;;;;122.32;48.15;;;1.10;96.80;;;;;;4687666;30;20423;-81
2021/12/26 14:38:28;;;;;;;114.85;46.08;;;1.10;96.70;;;;;;4676024;30;20357;-81
2021/12/26 14:41:05;;;;;;;124.28;47.47;;;1.10;96.80;;;;;;4661750;30;20045;-81
2021/12/26 14:43:33;;;;;;;115.88;44.92;;;1.10;96.70;;;;;;4672633;30;20080;-81
2021/12/26 14:46:05;;;;;;;122.75;45.58;;;1.20;96.50;;;;;;4675693;30;20050;-81
2021/12/26 14:48:44;;;;;;;104.38;43.78;;;1.20;96.50;;;;;;4676151;30;20045;-81
2021/12/26 14:51:14;;;;;;;107.35;44.05;;;1.20;96.40;;;;;;4667703;30;20049;-81
2021/12/26 14:53:41;;;;;;;108.78;42.83;;;1.20;96.30;;;;;;4758660;30;20037;-82
2021/12/26 14:56:11;;;;;;;107.15;43.92;;;1.20;96.40;;;;;;4714650;30;20278;-81
2021/12/26 14:58:46;;;;;;;112.47;45.78;;;1.20;96.50;;;;;;4758802;30;20048;-81
2021/12/26 15:01:27;;;;;;;101.45;42.00;;;1.20;96.70;;;;;;4743889;30;20043;-82
2021/12/26 15:04:10;;;;;;;121.25;46.38;;;1.30;96.60;;;;;;4741039;30;20037;-81
2021/12/26 15:06:49;;;;;;;103.18;41.25;;;1.30;96.30;;;;;;4729615;30;20048;-81
2021/12/26 15:09:32;;;;;;;106.57;42.20;;;1.30;96.30;;;;;;4742251;30;20363;-81
2021/12/26 15:12:00;;;;;;;100.35;41.08;;;1.40;96.30;;;;;;4756125;30;20043;-81
2021/12/26 15:14:26;;;;;;;108.68;43.00;;;1.30;96.00;;;;;;4733248;30;20054;-81
2021/12/26 15:16:52;;;;;;;101.47;40.40;;;1.30;95.90;;;;;;4734804;30;20048;-80
2021/12/26 15:19:18;;;;;;;101.32;39.70;;;1.20;96.10;;;;;;4766573;30;20037;-80
2021/12/26 15:21:44;;;;;;;99.97;41.17;;;1.20;96.00;;;;;;4742086;30;20107;-81
2021/12/26 15:24:10;;;;;;;105.78;41.20;;;1.20;96.10;;;;;;4739771;30;20044;-80
2021/12/26 15:26:36;;;;;;;95.65;41.03;;;1.30;96.10;;;;;;4744020;30;20044;-81
2021/12/26 15:29:05;;;;;;;103.03;40.00;;;1.30;96.10;;;;;;4739364;30;20100;-80
2021/12/26 15:31:36;;;;;;;95.25;39.25;;;1.20;96.00;;;;;;4753000;30;20048;-80
2021/12/26 15:34:05;;;;;;;98.20;42.15;;;1.20;96.00;;;;;;4764384;30;20040;-80
2021/12/26 15:36:38;;;;;;;101.97;41.45;;;1.20;96.10;;;;;;4750101;30;20040;-80
2021/12/26 15:39:10;;;;;;;104.57;43.65;;;1.20;96.30;;;;;;4743398;30;20048;-80
2021/12/26 15:41:39;;;;;;;98.32;41.08;;;1.10;96.20;;;;;;4741797;30;20049;-80
2021/12/26 15:44:06;;;;;;;101.40;39.88;;;1.20;96.10;;;;;;4743548;30;20086;-80
2021/12/26 15:46:37;;;;;;;93.28;39.30;;;1.20;96.00;;;;;;4739611;30;20272;-82
2021/12/26 15:49:04;;;;;;;97.35;39.05;;;1.20;96.10;;;;;;4740909;30;20033;-80
2021/12/26 15:51:30;;;;;;;94.68;41.50;;;1.20;96.20;;;;;;4726457;30;20248;-80
2021/12/26 15:53:56;;;;;;;94.68;39.67;;;1.10;96.20;;;;;;4713559;30;20052;-80
2021/12/26 15:56:22;;;;;;;96.18;39.63;;;1.20;96.30;;;;;;4739755;30;20304;-79
2021/12/26 15:58:50;;;;;;;93.65;39.65;;;1.20;96.10;;;;;;4742221;30;20038;-80
2021/12/26 16:01:15;;;;;;;;;;;1.10;96.20;;;;;;4741150;30;20045;-80
2021/12/26 16:03:41;;;;;;;98.87;38.10;;;1.10;96.10;;;;;;4740995;30;19921;-80
2021/12/26 16:06:07;;;;;;;87.83;36.70;;;1.20;96.20;;;;;;4727276;30;20087;-80
2021/12/26 16:08:33;;;;;;;81.88;36.70;;;1.20;95.90;;;;;;4739026;30;20033;-80
2021/12/26 16:11:00;;;;;;;80.43;36.20;;;1.10;96.00;;;;;;4743293;30;20560;-80
2021/12/26 16:13:26;;;;;;;86.28;35.50;;;1.00;95.80;;;;;;4742242;30;20028;-80
2021/12/26 16:15:52;;;;;;;92.40;37.15;;;1.10;96.00;;;;;;4729210;30;20075;-81
2021/12/26 16:18:19;;;;;;;89.60;37.15;;;1.10;95.80;;;;;;4742101;30;20055;-80
2021/12/26 16:20:49;;;;;;;83.60;37.17;;;1.00;95.70;;;;;;4732120;30;20056;-80
2021/12/26 16:23:15;;;;;;;87.78;36.88;;;1.00;95.80;;;;;;4734729;30;20128;-80
2021/12/26 16:25:41;;;;;;;82.53;36.80;;;0.90;96.10;;;;;;4726844;30;20202;-80
2021/12/26 16:28:07;;;;;;;104.88;41.20;;;1.00;96.20;;;;;;4739076;30;20035;-81
2021/12/26 16:30:35;;;;;;;104.53;45.63;;;1.00;96.20;;;;;;4741095;30;20029;-80
2021/12/26 16:33:01;;;;;;;88.88;39.60;;;1.10;96.30;;;;;;4727437;30;20055;-79
2021/12/26 16:35:27;;;;;;;95.53;40.33;;;1.20;96.60;;;;;;4717007;30;20389;-80
2021/12/26 16:37:53;;;;;;;105.75;43.40;;;1.20;96.20;;;;;;4742485;30;20302;-82